sensor_id;sensor_type;location;lat;lon;timestamp;pressure;altitude;pressure_sealevel;temperature;humidity
9889;BME280;4983;42.112;24.738;2022-07-03T00:01:47;100025.06;;;24.96;88.68
9889;BME280;4983;42.112;24.738;2022-07-03T00:04:14;100018.84;;;25.00;89.99
9889;BME280;4983;42.112;24.738;2022-07-03T00:06:42;100016.97;;;24.94;89.91
9889;BME280;4983;42.112;24.738;2022-07-03T00:09:09;100016.03;;;24.82;91.07
9889;BME280;4983;42.112;24.738;2022-07-03T00:11:37;100009.19;;;24.85;91.12
9889;BME280;4983;42.112;24.738;2022-07-03T00:14:04;100017.50;;;24.60;91.00
9889;BME280;4983;42.112;24.738;2022-07-03T00:16:31;100012.72;;;24.43;93.64
9889;BME280;4983;42.112;24.738;2022-07-03T00:18:58;100009.44;;;24.52;93.17
9889;BME280;4983;42.112;24.738;2022-07-03T00:21:27;100002.72;;;24.42;92.33
9889;BME280;4983;42.112;24.738;2022-07-03T00:24:02;100002.78;;;24.04;94.67
9889;BME280;4983;42.112;24.738;2022-07-03T00:26:32;100010.34;;;23.78;96.33
9889;BME280;4983;42.112;24.738;2022-07-03T00:29:00;100005.03;;;23.76;97.29
9889;BME280;4983;42.112;24.738;2022-07-03T00:31:28;100004.41;;;23.74;98.32
9889;BME280;4983;42.112;24.738;2022-07-03T00:33:58;100003.81;;;23.66;99.31
9889;BME280;4983;42.112;24.738;2022-07-03T00:36:26;99996.13;;;23.24;100.00
9889;BME280;4983;42.112;24.738;2022-07-03T00:38:57;99989.09;;;23.08;100.00
9889;BME280;4983;42.112;24.738;2022-07-03T00:41:25;99988.91;;;22.97;100.00
9889;BME280;4983;42.112;24.738;2022-07-03T00:43:54;99989.78;;;22.97;100.00
9889;BME280;4983;42.112;24.738;2022-07-03T00:46:23;99983.34;;;23.23;100.00
9889;BME280;4983;42.112;24.738;2022-07-03T00:48:51;99987.72;;;23.43;100.00
9889;BME280;4983;42.112;24.738;2022-07-03T00:51:22;99981.09;;;23.57;100.00
9889;BME280;4983;42.112;24.738;2022-07-03T00:53:52;99981.38;;;23.43;100.00
9889;BME280;4983;42.112;24.738;2022-07-03T00:56:24;99980.34;;;23.81;100.00
9889;BME280;4983;42.112;24.738;2022-07-03T00:58:54;99969.84;;;23.52;100.00
9889;BME280;4983;42.112;24.738;2022-07-03T01:01:22;99969.53;;;23.29;100.00
9889;BME280;4983;42.112;24.738;2022-07-03T01:03:59;99965.63;;;23.50;100.00
9889;BME280;4983;42.112;24.738;2022-07-03T01:06:33;99963.34;;;23.34;100.00
9889;BME280;4983;42.112;24.738;2022-07-03T01:09:03;99971.13;;;23.50;100.00
9889;BME280;4983;42.112;24.738;2022-07-03T01:11:37;99967.75;;;23.48;100.00
9889;BME280;4983;42.112;24.738;2022-07-03T01:14:15;99968.84;;;23.40;100.00
9889;BME280;4983;42.112;24.738;2022-07-03T01:16:51;99963.44;;;23.65;100.00
9889;BME280;4983;42.112;24.738;2022-07-03T01:19:34;99962.09;;;23.30;100.00
9889;BME280;4983;42.112;24.738;2022-07-03T01:22:26;99957.19;;;23.38;100.00
9889;BME280;4983;42.112;24.738;2022-07-03T01:25:15;99956.34;;;23.31;100.00
9889;BME280;4983;42.112;24.738;2022-07-03T01:28:07;99962.31;;;23.22;100.00
9889;BME280;4983;42.112;24.738;2022-07-03T01:30:37;99956.66;;;22.97;100.00
9889;BME280;4983;42.112;24.738;2022-07-03T01:33:07;99957.63;;;23.29;100.00
9889;BME280;4983;42.112;24.738;2022-07-03T01:35:36;99963.19;;;23.09;100.00
9889;BME280;4983;42.112;24.738;2022-07-03T01:38:06;99964.25;;;23.08;100.00
9889;BME280;4983;42.112;24.738;2022-07-03T01:40:35;99961.91;;;23.25;100.00
9889;BME280;4983;42.112;24.738;2022-07-03T01:43:05;99958.25;;;23.31;100.00
9889;BME280;4983;42.112;24.738;2022-07-03T01:45:38;99960.41;;;23.16;100.00
9889;BME280;4983;42.112;24.738;2022-07-03T01:48:07;99965.75;;;23.04;100.00
9889;BME280;4983;42.112;24.738;2022-07-03T01:50:37;99956.00;;;23.02;100.00
9889;BME280;4983;42.112;24.738;2022-07-03T01:53:07;99963.63;;;23.00;100.00
9889;BME280;4983;42.112;24.738;2022-07-03T01:55:38;99964.06;;;23.16;100.00
9889;BME280;4983;42.112;24.738;2022-07-03T01:58:07;99962.09;;;23.23;100.00
9889;BME280;4983;42.112;24.738;2022-07-03T02:00:41;99962.31;;;23.22;100.00
9889;BME280;4983;42.112;24.738;2022-07-03T02:03:17;99961.69;;;23.13;100.00
9889;BME280;4983;42.112;24.738;2022-07-03T02:05:48;99950.06;;;22.98;100.00
9889;BME280;4983;42.112;24.738;2022-07-03T02:08:30;99966.19;;;23.01;100.00
9889;BME280;4983;42.112;24.738;2022-07-03T02:11:09;99953.75;;;22.60;100.00
9889;BME280;4983;42.112;24.738;2022-07-03T02:13:45;99960.31;;;22.65;100.00
9889;BME280;4983;42.112;24.738;2022-07-03T02:16:19;99957.13;;;22.62;100.00
9889;BME280;4983;42.112;24.738;2022-07-03T02:18:52;99970.91;;;22.42;100.00
9889;BME280;4983;42.112;24.738;2022-07-03T02:21:26;99964.38;;;22.56;100.00
9889;BME280;4983;42.112;24.738;2022-07-03T02:24:07;99968.56;;;22.33;100.00
9889;BME280;4983;42.112;24.738;2022-07-03T02:26:38;99974.72;;;22.22;100.00
9889;BME280;4983;42.112;24.738;2022-07-03T02:29:11;99962.84;;;22.34;100.00
9889;BME280;4983;42.112;24.738;2022-07-03T02:31:43;99969.19;;;22.22;100.00
9889;BME280;4983;42.112;24.738;2022-07-03T02:34:13;99968.13;;;22.10;100.00
9889;BME280;4983;42.112;24.738;2022-07-03T02:36:45;99978.72;;;22.06;100.00
9889;BME280;4983;42.112;24.738;2022-07-03T02:39:18;99974.94;;;22.27;100.00
9889;BME280;4983;42.112;24.738;2022-07-03T02:41:52;99977.28;;;22.30;100.00
9889;BME280;4983;42.112;24.738;2022-07-03T02:44:25;99976.84;;;22.33;100.00
9889;BME280;4983;42.112;24.738;2022-07-03T02:47:03;99978.13;;;22.37;100.00
9889;BME280;4983;42.112;24.738;2022-07-03T02:49:43;99984.06;;;22.47;100.00
9889;BME280;4983;42.112;24.738;2022-07-03T02:52:22;99976.66;;;22.47;100.00
9889;BME280;4983;42.112;24.738;2022-07-03T02:54:52;99986.22;;;22.45;100.00
9889;BME280;4983;42.112;24.738;2022-07-03T02:57:20;99982.59;;;22.51;100.00
9889;BME280;4983;42.112;24.738;2022-07-03T02:59:56;99978.56;;;22.27;100.00
9889;BME280;4983;42.112;24.738;2022-07-03T03:02:38;99980.22;;;22.22;100.00
9889;BME280;4983;42.112;24.738;2022-07-03T03:05:13;99976.84;;;22.20;100.00
9889;BME280;4983;42.112;24.738;2022-07-03T03:07:58;99967.28;;;22.16;100.00
9889;BME280;4983;42.112;24.738;2022-07-03T03:10:26;99976.19;;;22.11;100.00
9889;BME280;4983;42.112;24.738;2022-07-03T03:12:58;99975.34;;;22.11;100.00
9889;BME280;4983;42.112;24.738;2022-07-03T03:15:31;99984.91;;;22.34;100.00
9889;BME280;4983;42.112;24.738;2022-07-03T03:18:01;99975.56;;;22.29;100.00
9889;BME280;4983;42.112;24.738;2022-07-03T03:20:31;99971.53;;;22.05;100.00
9889;BME280;4983;42.112;24.738;2022-07-03T03:23:15;99968.78;;;22.18;100.00
9889;BME280;4983;42.112;24.738;2022-07-03T03:25:43;99966.03;;;22.25;100.00
9889;BME280;4983;42.112;24.738;2022-07-03T03:28:10;99964.13;;;22.19;100.00
9889;BME280;4983;42.112;24.738;2022-07-03T03:30:39;99968.13;;;22.23;100.00
9889;BME280;4983;42.112;24.738;2022-07-03T03:33:06;99973.84;;;22.08;100.00
9889;BME280;4983;42.112;24.738;2022-07-03T03:35:36;99969.41;;;22.07;100.00
9889;BME280;4983;42.112;24.738;2022-07-03T03:38:03;99972.63;;;22.24;100.00
9889;BME280;4983;42.112;24.738;2022-07-03T03:40:31;99971.94;;;22.09;100.00
9889;BME280;4983;42.112;24.738;2022-07-03T03:42:58;99971.34;;;22.39;100.00
9889;BME280;4983;42.112;24.738;2022-07-03T03:45:26;99968.16;;;22.62;100.00
9889;BME280;4983;42.112;24.738;2022-07-03T03:47:54;99980.03;;;22.75;100.00
9889;BME280;4983;42.112;24.738;2022-07-03T03:50:22;99974.66;;;23.00;100.00
9889;BME280;4983;42.112;24.738;2022-07-03T03:52:50;99974.03;;;23.04;100.00
9889;BME280;4983;42.112;24.738;2022-07-03T03:55:17;99974.63;;;23.26;100.00
9889;BME280;4983;42.112;24.738;2022-07-03T03:57:44;99975.66;;;23.44;100.00
9889;BME280;4983;42.112;24.738;2022-07-03T04:00:12;99978.56;;;23.49;100.00
9889;BME280;4983;42.112;24.738;2022-07-03T04:02:39;99978.81;;;23.48;100.00
9889;BME280;4983;42.112;24.738;2022-07-03T04:05:08;99978.16;;;23.46;100.00
9889;BME280;4983;42.112;24.738;2022-07-03T04:07:35;99981.66;;;23.72;100.00
9889;BME280;4983;42.112;24.738;2022-07-03T04:10:05;99979.53;;;23.74;100.00
9889;BME280;4983;42.112;24.738;2022-07-03T04:12:31;99981.88;;;23.71;100.00
9889;BME280;4983;42.112;24.738;2022-07-03T04:14:58;99989.72;;;23.30;100.00
9889;BME280;4983;42.112;24.738;2022-07-03T04:17:25;99986.53;;;23.26;100.00
9889;BME280;4983;42.112;24.738;2022-07-03T04:19:53;99981.97;;;22.62;100.00
9889;BME280;4983;42.112;24.738;2022-07-03T04:22:21;99984.09;;;22.60;100.00
9889;BME280;4983;42.112;24.738;2022-07-03T04:24:48;99987.88;;;22.85;100.00
9889;BME280;4983;42.112;24.738;2022-07-03T04:27:15;99987.03;;;22.97;100.00
9889;BME280;4983;42.112;24.738;2022-07-03T04:29:42;99984.22;;;23.04;100.00
9889;BME280;4983;42.112;24.738;2022-07-03T04:32:08;99995.47;;;23.09;100.00
9889;BME280;4983;42.112;24.738;2022-07-03T04:34:36;99984.41;;;23.28;100.00
9889;BME280;4983;42.112;24.738;2022-07-03T04:37:03;99983.94;;;23.38;100.00
9889;BME280;4983;42.112;24.738;2022-07-03T04:39:31;99988.66;;;23.31;100.00
9889;BME280;4983;42.112;24.738;2022-07-03T04:41:58;99985.06;;;23.17;100.00
9889;BME280;4983;42.112;24.738;2022-07-03T04:44:25;99996.53;;;23.21;100.00
9889;BME280;4983;42.112;24.738;2022-07-03T04:46:53;99983.56;;;23.28;100.00
9889;BME280;4983;42.112;24.738;2022-07-03T04:49:21;99987.38;;;23.27;100.00
9889;BME280;4983;42.112;24.738;2022-07-03T04:51:48;99987.31;;;23.40;100.00
9889;BME280;4983;42.112;24.738;2022-07-03T04:54:15;99987.41;;;23.14;100.00
9889;BME280;4983;42.112;24.738;2022-07-03T04:56:43;99974.56;;;23.45;100.00
9889;BME280;4983;42.112;24.738;2022-07-03T04:59:10;99977.28;;;23.52;100.00
9889;BME280;4983;42.112;24.738;2022-07-03T05:01:37;99989.72;;;23.74;100.00
9889;BME280;4983;42.112;24.738;2022-07-03T05:04:04;99982.81;;;23.52;100.00
9889;BME280;4983;42.112;24.738;2022-07-03T05:06:31;99977.94;;;23.54;100.00
9889;BME280;4983;42.112;24.738;2022-07-03T05:08:59;99980.84;;;23.65;100.00
9889;BME280;4983;42.112;24.738;2022-07-03T05:11:25;99985.88;;;23.75;100.00
9889;BME280;4983;42.112;24.738;2022-07-03T05:13:54;99983.63;;;24.03;100.00
9889;BME280;4983;42.112;24.738;2022-07-03T05:16:21;99978.81;;;24.23;100.00
9889;BME280;4983;42.112;24.738;2022-07-03T05:18:48;99987.75;;;24.49;100.00
9889;BME280;4983;42.112;24.738;2022-07-03T05:21:14;99983.25;;;24.55;100.00
9889;BME280;4983;42.112;24.738;2022-07-03T05:23:42;99988.13;;;24.59;100.00
9889;BME280;4983;42.112;24.738;2022-07-03T05:26:09;99990.69;;;24.61;99.52
9889;BME280;4983;42.112;24.738;2022-07-03T05:28:35;99993.09;;;24.75;98.78
9889;BME280;4983;42.112;24.738;2022-07-03T05:31:04;99985.38;;;25.02;98.03
9889;BME280;4983;42.112;24.738;2022-07-03T05:33:31;99990.81;;;25.08;96.23
9889;BME280;4983;42.112;24.738;2022-07-03T05:35:59;99992.22;;;25.24;94.75
9889;BME280;4983;42.112;24.738;2022-07-03T05:38:26;99998.25;;;25.32;94.50
9889;BME280;4983;42.112;24.738;2022-07-03T05:41:11;99983.50;;;25.38;95.69
9889;BME280;4983;42.112;24.738;2022-07-03T05:43:40;99983.56;;;25.50;94.21
9889;BME280;4983;42.112;24.738;2022-07-03T05:46:08;99986.50;;;25.55;91.69
9889;BME280;4983;42.112;24.738;2022-07-03T05:48:35;99985.72;;;25.66;90.95
9889;BME280;4983;42.112;24.738;2022-07-03T05:51:02;99981.81;;;25.85;89.69
9889;BME280;4983;42.112;24.738;2022-07-03T05:53:29;99988.22;;;25.67;90.84
9889;BME280;4983;42.112;24.738;2022-07-03T05:55:57;99988.22;;;25.85;90.24
9889;BME280;4983;42.112;24.738;2022-07-03T05:58:24;99982.53;;;25.80;88.56
9889;BME280;4983;42.112;24.738;2022-07-03T06:00:52;99979.97;;;25.79;88.94
9889;BME280;4983;42.112;24.738;2022-07-03T06:03:21;99978.16;;;26.02;87.17
9889;BME280;4983;42.112;24.738;2022-07-03T06:05:48;99977.00;;;26.10;86.35
9889;BME280;4983;42.112;24.738;2022-07-03T06:08:15;99975.81;;;26.17;87.18
9889;BME280;4983;42.112;24.738;2022-07-03T06:10:43;99983.06;;;26.18;84.97
9889;BME280;4983;42.112;24.738;2022-07-03T06:13:10;99972.63;;;26.02;86.73
9889;BME280;4983;42.112;24.738;2022-07-03T06:15:37;99980.78;;;26.15;86.11
9889;BME280;4983;42.112;24.738;2022-07-03T06:18:05;99977.72;;;26.17;87.34
9889;BME280;4983;42.112;24.738;2022-07-03T06:20:33;99975.88;;;26.40;86.90
9889;BME280;4983;42.112;24.738;2022-07-03T06:23:00;99975.56;;;26.71;86.41
9889;BME280;4983;42.112;24.738;2022-07-03T06:25:27;99972.19;;;27.04;85.16
9889;BME280;4983;42.112;24.738;2022-07-03T06:27:54;99981.84;;;26.78;83.54
9889;BME280;4983;42.112;24.738;2022-07-03T06:30:21;99973.91;;;26.93;83.82
9889;BME280;4983;42.112;24.738;2022-07-03T06:32:47;99977.28;;;27.07;84.58
9889;BME280;4983;42.112;24.738;2022-07-03T06:35:15;99975.94;;;26.98;83.63
9889;BME280;4983;42.112;24.738;2022-07-03T06:37:44;99972.72;;;27.24;81.25
9889;BME280;4983;42.112;24.738;2022-07-03T06:40:11;99976.56;;;27.34;81.11
9889;BME280;4983;42.112;24.738;2022-07-03T06:42:38;99970.59;;;27.42;80.41
9889;BME280;4983;42.112;24.738;2022-07-03T06:45:06;99966.66;;;27.66;81.11
9889;BME280;4983;42.112;24.738;2022-07-03T06:47:37;99965.19;;;27.36;79.16
9889;BME280;4983;42.112;24.738;2022-07-03T06:50:05;99960.94;;;27.45;78.32
9889;BME280;4983;42.112;24.738;2022-07-03T06:52:32;99965.72;;;27.61;80.85
9889;BME280;4983;42.112;24.738;2022-07-03T06:55:00;99960.59;;;27.81;79.32
9889;BME280;4983;42.112;24.738;2022-07-03T06:57:27;99955.50;;;28.06;78.84
9889;BME280;4983;42.112;24.738;2022-07-03T06:59:54;99956.22;;;28.13;77.28
9889;BME280;4983;42.112;24.738;2022-07-03T07:02:22;99961.47;;;28.26;79.40
9889;BME280;4983;42.112;24.738;2022-07-03T07:04:50;99953.41;;;28.41;76.74
9889;BME280;4983;42.112;24.738;2022-07-03T07:07:17;99948.34;;;28.10;75.77
9889;BME280;4983;42.112;24.738;2022-07-03T07:09:44;99950.22;;;28.21;75.66
9889;BME280;4983;42.112;24.738;2022-07-03T07:12:12;99944.75;;;28.26;76.29
9889;BME280;4983;42.112;24.738;2022-07-03T07:14:39;99952.06;;;28.60;76.33
9889;BME280;4983;42.112;24.738;2022-07-03T07:17:06;99943.09;;;28.58;77.25
9889;BME280;4983;42.112;24.738;2022-07-03T07:19:33;99947.56;;;28.59;76.99
9889;BME280;4983;42.112;24.738;2022-07-03T07:22:00;99940.06;;;28.92;75.90
9889;BME280;4983;42.112;24.738;2022-07-03T07:24:27;99948.25;;;28.99;73.59
9889;BME280;4983;42.112;24.738;2022-07-03T07:26:54;99943.13;;;28.74;73.73
9889;BME280;4983;42.112;24.738;2022-07-03T07:29:22;99946.22;;;28.94;75.04
9889;BME280;4983;42.112;24.738;2022-07-03T07:31:49;99945.47;;;29.37;73.49
9889;BME280;4983;42.112;24.738;2022-07-03T07:34:16;99951.19;;;29.09;71.46
9889;BME280;4983;42.112;24.738;2022-07-03T07:36:44;99934.38;;;29.42;71.09
9889;BME280;4983;42.112;24.738;2022-07-03T07:39:11;99933.84;;;29.45;70.92
9889;BME280;4983;42.112;24.738;2022-07-03T07:41:38;99940.34;;;29.50;71.34
9889;BME280;4983;42.112;24.738;2022-07-03T07:44:05;99930.34;;;29.76;74.52
9889;BME280;4983;42.112;24.738;2022-07-03T07:46:33;99930.72;;;29.84;69.18
9889;BME280;4983;42.112;24.738;2022-07-03T07:49:01;99937.94;;;29.80;68.29
9889;BME280;4983;42.112;24.738;2022-07-03T07:51:29;99934.94;;;29.87;67.12
9889;BME280;4983;42.112;24.738;2022-07-03T07:53:55;99926.13;;;30.00;71.30
9889;BME280;4983;42.112;24.738;2022-07-03T07:56:24;99928.59;;;30.18;67.40
9889;BME280;4983;42.112;24.738;2022-07-03T07:58:51;99937.84;;;30.50;66.47
9889;BME280;4983;42.112;24.738;2022-07-03T08:01:19;99932.97;;;30.67;64.52
9889;BME280;4983;42.112;24.738;2022-07-03T08:04:05;99936.25;;;30.95;66.70
9889;BME280;4983;42.112;24.738;2022-07-03T08:06:49;99931.56;;;31.06;63.44
9889;BME280;4983;42.112;24.738;2022-07-03T08:09:16;99937.28;;;31.21;61.32
9889;BME280;4983;42.112;24.738;2022-07-03T08:11:43;99932.41;;;31.06;61.89
9889;BME280;4983;42.112;24.738;2022-07-03T08:14:13;99923.91;;;30.91;57.82
9889;BME280;4983;42.112;24.738;2022-07-03T08:16:40;99930.75;;;31.05;60.46
9889;BME280;4983;42.112;24.738;2022-07-03T08:19:10;99927.38;;;31.08;59.83
9889;BME280;4983;42.112;24.738;2022-07-03T08:21:37;99939.47;;;31.14;60.58
9889;BME280;4983;42.112;24.738;2022-07-03T08:24:05;99941.53;;;31.28;56.92
9889;BME280;4983;42.112;24.738;2022-07-03T08:26:31;99935.69;;;31.35;55.06
9889;BME280;4983;42.112;24.738;2022-07-03T08:28:59;99938.91;;;31.63;59.30
9889;BME280;4983;42.112;24.738;2022-07-03T08:31:26;99935.50;;;31.51;57.23
9889;BME280;4983;42.112;24.738;2022-07-03T08:33:53;99944.34;;;32.00;55.53
9889;BME280;4983;42.112;24.738;2022-07-03T08:36:21;99929.53;;;32.19;53.55
9889;BME280;4983;42.112;24.738;2022-07-03T08:38:48;99942.50;;;32.35;52.56
9889;BME280;4983;42.112;24.738;2022-07-03T08:41:16;99938.84;;;32.45;50.94
9889;BME280;4983;42.112;24.738;2022-07-03T08:43:49;99936.34;;;32.53;54.52
9889;BME280;4983;42.112;24.738;2022-07-03T08:46:16;99947.00;;;32.66;49.21
9889;BME280;4983;42.112;24.738;2022-07-03T08:48:44;99943.63;;;32.89;49.84
9889;BME280;4983;42.112;24.738;2022-07-03T08:51:13;99942.16;;;32.07;44.26
9889;BME280;4983;42.112;24.738;2022-07-03T08:53:43;99933.81;;;32.27;43.33
9889;BME280;4983;42.112;24.738;2022-07-03T08:56:13;99933.53;;;32.73;37.55
9889;BME280;4983;42.112;24.738;2022-07-03T08:58:40;99930.47;;;32.60;42.11
9889;BME280;4983;42.112;24.738;2022-07-03T09:01:08;99932.16;;;32.86;41.02
9889;BME280;4983;42.112;24.738;2022-07-03T09:03:35;99933.22;;;33.10;43.25
9889;BME280;4983;42.112;24.738;2022-07-03T09:06:02;99935.50;;;32.98;45.96
9889;BME280;4983;42.112;24.738;2022-07-03T09:08:31;99923.19;;;32.89;46.13
9889;BME280;4983;42.112;24.738;2022-07-03T09:11:00;99926.53;;;32.91;46.01
9889;BME280;4983;42.112;24.738;2022-07-03T09:13:27;99927.66;;;32.60;46.38
9889;BME280;4983;42.112;24.738;2022-07-03T09:15:54;99927.66;;;32.55;45.34
9889;BME280;4983;42.112;24.738;2022-07-03T09:18:36;99925.94;;;33.09;46.59
9889;BME280;4983;42.112;24.738;2022-07-03T09:21:05;99925.38;;;33.07;45.31
9889;BME280;4983;42.112;24.738;2022-07-03T09:23:35;99926.75;;;33.19;43.67
9889;BME280;4983;42.112;24.738;2022-07-03T09:26:12;99922.50;;;33.42;44.50
9889;BME280;4983;42.112;24.738;2022-07-03T09:28:44;99917.47;;;33.29;44.09
9889;BME280;4983;42.112;24.738;2022-07-03T09:31:13;99917.78;;;33.17;43.49
9889;BME280;4983;42.112;24.738;2022-07-03T09:33:57;99910.19;;;33.33;43.20
9889;BME280;4983;42.112;24.738;2022-07-03T09:36:41;99913.94;;;33.72;46.24
9889;BME280;4983;42.112;24.738;2022-07-03T09:39:16;99908.69;;;34.09;42.02
9889;BME280;4983;42.112;24.738;2022-07-03T09:41:55;99898.56;;;34.13;40.27
9889;BME280;4983;42.112;24.738;2022-07-03T09:44:33;99897.75;;;34.07;36.77
9889;BME280;4983;42.112;24.738;2022-07-03T09:47:12;99904.31;;;34.36;37.54
9889;BME280;4983;42.112;24.738;2022-07-03T09:49:49;99905.47;;;34.25;37.74
9889;BME280;4983;42.112;24.738;2022-07-03T09:52:37;99902.41;;;34.22;38.00
9889;BME280;4983;42.112;24.738;2022-07-03T09:55:15;99900.13;;;34.29;36.68
9889;BME280;4983;42.112;24.738;2022-07-03T09:57:46;99901.38;;;34.51;37.64
9889;BME280;4983;42.112;24.738;2022-07-03T10:00:24;99896.22;;;34.63;37.50
9889;BME280;4983;42.112;24.738;2022-07-03T10:02:54;99895.22;;;34.44;37.11
9889;BME280;4983;42.112;24.738;2022-07-03T10:05:24;99897.06;;;34.59;36.62
9889;BME280;4983;42.112;24.738;2022-07-03T10:07:54;99895.84;;;34.75;35.45
9889;BME280;4983;42.112;24.738;2022-07-03T10:10:22;99885.69;;;34.45;36.70
9889;BME280;4983;42.112;24.738;2022-07-03T10:12:52;99876.19;;;34.36;38.00
9889;BME280;4983;42.112;24.738;2022-07-03T10:15:22;99880.31;;;34.49;38.11
9889;BME280;4983;42.112;24.738;2022-07-03T10:17:51;99874.00;;;34.62;37.17
9889;BME280;4983;42.112;24.738;2022-07-03T10:20:23;99879.38;;;34.58;37.02
9889;BME280;4983;42.112;24.738;2022-07-03T10:22:52;99877.59;;;34.67;36.84
9889;BME280;4983;42.112;24.738;2022-07-03T10:25:19;99875.00;;;34.71;37.12
9889;BME280;4983;42.112;24.738;2022-07-03T10:27:47;99876.09;;;34.80;36.71
9889;BME280;4983;42.112;24.738;2022-07-03T10:30:17;99866.72;;;34.89;39.89
9889;BME280;4983;42.112;24.738;2022-07-03T10:32:46;99867.06;;;34.83;37.31
9889;BME280;4983;42.112;24.738;2022-07-03T10:35:15;99865.03;;;35.12;36.88
9889;BME280;4983;42.112;24.738;2022-07-03T10:38:03;99857.19;;;35.09;36.83
9889;BME280;4983;42.112;24.738;2022-07-03T10:40:40;99865.75;;;35.27;40.30
9889;BME280;4983;42.112;24.738;2022-07-03T10:43:28;99852.97;;;35.35;38.74
9889;BME280;4983;42.112;24.738;2022-07-03T10:46:16;99853.19;;;35.15;36.00
9889;BME280;4983;42.112;24.738;2022-07-03T10:48:58;99844.75;;;35.38;37.05
9889;BME280;4983;42.112;24.738;2022-07-03T10:51:27;99853.88;;;35.30;38.42
9889;BME280;4983;42.112;24.738;2022-07-03T10:54:17;99847.88;;;35.37;36.43
9889;BME280;4983;42.112;24.738;2022-07-03T10:57:11;99848.31;;;35.20;36.92
9889;BME280;4983;42.112;24.738;2022-07-03T11:02:45;99839.59;;;35.45;36.22
9889;BME280;4983;42.112;24.738;2022-07-03T11:05:16;99840.75;;;35.63;37.03
9889;BME280;4983;42.112;24.738;2022-07-03T11:08:11;99844.41;;;35.63;36.82
9889;BME280;4983;42.112;24.738;2022-07-03T11:10:42;99830.75;;;35.75;34.18
9889;BME280;4983;42.112;24.738;2022-07-03T11:13:11;99835.25;;;35.76;35.73
9889;BME280;4983;42.112;24.738;2022-07-03T11:15:44;99823.81;;;35.86;36.49
9889;BME280;4983;42.112;24.738;2022-07-03T11:18:19;99822.03;;;35.53;36.09
9889;BME280;4983;42.112;24.738;2022-07-03T11:24:29;99822.31;;;35.33;37.29
9889;BME280;4983;42.112;24.738;2022-07-03T11:27:29;99810.94;;;35.38;35.37
9889;BME280;4983;42.112;24.738;2022-07-03T11:30:01;99814.03;;;35.60;35.27
9889;BME280;4983;42.112;24.738;2022-07-03T11:32:49;99821.31;;;35.61;33.66
9889;BME280;4983;42.112;24.738;2022-07-03T11:35:49;99801.63;;;35.43;34.52
9889;BME280;4983;42.112;24.738;2022-07-03T11:38:22;99807.56;;;35.60;35.71
9889;BME280;4983;42.112;24.738;2022-07-03T11:40:50;99800.66;;;35.71;35.15
9889;BME280;4983;42.112;24.738;2022-07-03T11:43:18;99816.16;;;35.50;35.93
9889;BME280;4983;42.112;24.738;2022-07-03T11:45:46;99798.34;;;35.54;40.03
9889;BME280;4983;42.112;24.738;2022-07-03T11:48:15;99804.34;;;35.66;36.77
9889;BME280;4983;42.112;24.738;2022-07-03T11:50:45;99798.97;;;35.88;36.55
9889;BME280;4983;42.112;24.738;2022-07-03T11:53:25;99803.63;;;35.98;34.83
9889;BME280;4983;42.112;24.738;2022-07-03T11:55:54;99801.31;;;35.63;34.84
9889;BME280;4983;42.112;24.738;2022-07-03T11:58:22;99789.94;;;35.73;35.05
9889;BME280;4983;42.112;24.738;2022-07-03T12:00:51;99793.34;;;36.07;37.72
9889;BME280;4983;42.112;24.738;2022-07-03T12:03:24;99796.59;;;36.14;35.29
9889;BME280;4983;42.112;24.738;2022-07-03T12:05:53;99793.94;;;36.22;33.80
9889;BME280;4983;42.112;24.738;2022-07-03T12:08:27;99783.19;;;36.24;33.36
9889;BME280;4983;42.112;24.738;2022-07-03T12:11:00;99781.81;;;36.22;36.33
9889;BME280;4983;42.112;24.738;2022-07-03T12:13:28;99783.25;;;36.51;33.95
9889;BME280;4983;42.112;24.738;2022-07-03T12:16:04;99783.69;;;36.58;33.79
9889;BME280;4983;42.112;24.738;2022-07-03T12:18:48;99784.09;;;36.20;33.65
9889;BME280;4983;42.112;24.738;2022-07-03T12:21:16;99786.84;;;35.88;33.99
9889;BME280;4983;42.112;24.738;2022-07-03T12:23:47;99782.94;;;35.70;34.73
9889;BME280;4983;42.112;24.738;2022-07-03T12:26:27;99777.44;;;35.79;35.36
9889;BME280;4983;42.112;24.738;2022-07-03T12:28:54;99773.59;;;36.07;35.44
9889;BME280;4983;42.112;24.738;2022-07-03T12:31:22;99773.63;;;35.88;33.88
9889;BME280;4983;42.112;24.738;2022-07-03T12:33:49;99762.78;;;35.77;34.04
9889;BME280;4983;42.112;24.738;2022-07-03T12:36:17;99770.06;;;35.83;34.33
9889;BME280;4983;42.112;24.738;2022-07-03T12:38:49;99756.84;;;35.78;35.27
9889;BME280;4983;42.112;24.738;2022-07-03T12:41:16;99762.13;;;35.85;35.08
9889;BME280;4983;42.112;24.738;2022-07-03T12:43:46;99762.06;;;36.03;34.08
9889;BME280;4983;42.112;24.738;2022-07-03T12:46:22;99760.81;;;35.96;38.39
9889;BME280;4983;42.112;24.738;2022-07-03T12:48:50;99764.44;;;35.96;34.22
9889;BME280;4983;42.112;24.738;2022-07-03T12:51:36;99750.94;;;35.80;34.90
9889;BME280;4983;42.112;24.738;2022-07-03T12:54:05;99746.03;;;35.67;35.25
9889;BME280;4983;42.112;24.738;2022-07-03T12:56:32;99748.91;;;35.99;36.24
9889;BME280;4983;42.112;24.738;2022-07-03T12:58:59;99744.44;;;36.30;34.98
9889;BME280;4983;42.112;24.738;2022-07-03T13:01:43;99744.16;;;35.62;34.47
9889;BME280;4983;42.112;24.738;2022-07-03T13:04:11;99737.59;;;35.67;35.23
9889;BME280;4983;42.112;24.738;2022-07-03T13:06:41;99736.69;;;35.90;35.06
9889;BME280;4983;42.112;24.738;2022-07-03T13:09:12;99733.41;;;35.64;36.27
9889;BME280;4983;42.112;24.738;2022-07-03T13:11:40;99729.44;;;35.84;36.38
9889;BME280;4983;42.112;24.738;2022-07-03T13:14:09;99737.56;;;36.04;35.11
9889;BME280;4983;42.112;24.738;2022-07-03T13:16:39;99730.09;;;35.94;34.53
9889;BME280;4983;42.112;24.738;2022-07-03T13:19:06;99731.91;;;35.72;34.30
9889;BME280;4983;42.112;24.738;2022-07-03T13:21:35;99742.94;;;35.68;35.31
9889;BME280;4983;42.112;24.738;2022-07-03T13:24:03;99735.00;;;35.89;35.80
9889;BME280;4983;42.112;24.738;2022-07-03T13:26:32;99721.16;;;36.06;35.27
9889;BME280;4983;42.112;24.738;2022-07-03T13:28:59;99723.78;;;36.34;33.60
9889;BME280;4983;42.112;24.738;2022-07-03T13:31:26;99710.22;;;36.50;34.03
9889;BME280;4983;42.112;24.738;2022-07-03T13:33:53;99711.97;;;36.46;34.12